Portada
METAR-TAF:

METAR-TAF

Aeroports :

Alor Setar, Malàisia

latitud: 06-11-40N, longitud: 100-24-03E, altitud: 5 m

Observació

L'informe es va fer fa 29 minuts, a les 21:00 UTC
Vent calma
Temperatura 26°C
Humitat 100%
Pressió 1008 hPa
Visibilitat 10 km o més
Escasses núvols a una alçada de 2800 ft

METAR: WMKA 192100Z 00000KT 9999 FEW028 26/26 Q1008

Hora: 05:29 (21:29 UTC)

Pronòstic

L'informe es va fer fa 10 hores i 29 minuts, a les 11:00 UTC
Pronòstic vàlid del 19 a les 12 UTC al 20 a les 12 UTC
Vent 3 kt amb direcció variable
Visibilitat 10 km o més
Escasses núvols a una alçada de 2800 ft
Evolucionant progressivament
l' 20 a les 04 UTC al 20 a les 06 UTC
Vent 6 kt del Oest
Escasses núvols a una alçada de 2000 ft

TAF: WMKA 191100Z 1912/2012 VRB03KT 9999 FEW028 BECMG 2004/2006 26006KT FEW020

Observacions i pronòstics meteorològics de més de 4000 aeroports (METAR i TAF).

Les estacions disponibles són els punts grocs i vermells al mapa.

Posi el ratolí al punt desitjat per veure el nom de l'estació.

Feu clic per veure les observacions i els pronòstics meteorològics.

Per canviar el mapa: feu clic els botons verds amb una creu de color negre per apropar; al botó verd amb un guió per allunyar la imatge; o en les fletxes verdes per a mapes adjacents.


METAR-TAF: